Healdsburg, California
Current Conditions -  °F | °C
As of 8:53 AM on Friday 24 Oct 2014 (Local Time) from KSTS Reporting Station
Moderate Fog Moderate Fog  
Wind Chill: 53°   Ceiling: 200
Heat Index: 53°   Visibility: 0.25mi
Dew Point: 53°   Wind: 3mph
Humidity: 100%   Direction: 320°NW
Pressure: 29.97"   Gusts: NA
Location:  38.61°N, 122.86°W
Report Text: KSTS 241553Z 32003KT 1/4SM FG VV002 12/12 A2997 RMK AO2 SLP142 T01170117
Loading
Personal Weather Stations






























Interactive Weather Map
Tropical Storm Tracking
New forecast layout! Learn more

10-Day Weather Forecast

Advertisements
Track Severe Weather on mobile